Gaslog Saratoga — ZCEN3 — position and weather

sailwx.info

Track history (hours):
 
Tides and Currents Weather Stations Pressure Air Temp Water Temp Dewpoint Dewpoint Depression Visibility Wind Speed Wind Dir Waves Ship Positions

Gaslog Saratoga

Last reported at 2017-Dec-18 05:06 UTC. Time now 2017-Dec-18 11:01 UTC.
Position N 35°21' W 024°03'.

Length 285 m; draft 7 m.

Type: Ship (hazmat cat C). MMSI: 310696000.

Date/timePositionNaut miles runAvg speedWind from/ knotsBaromVisibWave heightAir tempDewpointWater temp
2017-Dec-18 05:06N 35°21' W 024°03'  
2017-Dec-09 21:22N 47°53' W 005°46'411.6
2017-Dec-09 21:00N 47°54' W 005°40'611.3
2017-Dec-09 20:28N 47°57' W 005°32'611.7
2017-Dec-09 19:58N 48°01' W 005°26'511.3
2017-Dec-09 19:29N 48°05' W 005°19'510.9
2017-Dec-09 19:01N 48°07' W 005°13'510.8
2017-Dec-09 18:31N 48°10' W 005°06'611.0
2017-Dec-09 18:00N 48°14' W 004°60'611.6
2017-Dec-09 17:31N 48°16' W 004°51'611.7
2017-Dec-09 17:00N 48°18' W 004°43'510.0
2017-Dec-09 16:31N 48°20' W 004°36'5 9.9
2017-Dec-09 16:00N 48°22' W 004°29'2 3.4
2017-Dec-09 15:30N 48°23' W 004°28'0 0.6
2017-Dec-09 15:00N 48°23' W 004°28'0 0.0
2017-Dec-09 14:30N 48°23' W 004°28'0 0.0
2017-Dec-09 14:00N 48°23' W 004°28'  
Track history (hours):
 
Tides and Currents Weather Stations Pressure Air Temp Water Temp Dewpoint Dewpoint Depression Visibility Wind Speed Wind Dir Waves Ship Positions

Gaslog Saratoga

Last reported at 2017-Dec-18 05:06 UTC. Time now 2017-Dec-18 11:01 UTC.
Position N 35°21' W 024°03'.

Length 285 m; draft 7 m.

Type: Ship (hazmat cat C). MMSI: 310696000.

Date/timePositionNaut miles runAvg speedWind from/ knotsBaromVisibWave heightAir tempDewpointWater temp
2017-Dec-18 05:06N 35°21' W 024°03'  
2017-Dec-09 21:22N 47°53' W 005°46'411.6
2017-Dec-09 21:00N 47°54' W 005°40'611.3
2017-Dec-09 20:28N 47°57' W 005°32'611.7
2017-Dec-09 19:58N 48°01' W 005°26'511.3
2017-Dec-09 19:29N 48°05' W 005°19'510.9
2017-Dec-09 19:01N 48°07' W 005°13'510.8
2017-Dec-09 18:31N 48°10' W 005°06'611.0
2017-Dec-09 18:00N 48°14' W 004°60'611.6
2017-Dec-09 17:31N 48°16' W 004°51'611.7
2017-Dec-09 17:00N 48°18' W 004°43'510.0
2017-Dec-09 16:31N 48°20' W 004°36'5 9.9
2017-Dec-09 16:00N 48°22' W 004°29'2 3.4
2017-Dec-09 15:30N 48°23' W 004°28'0 0.6
2017-Dec-09 15:00N 48°23' W 004°28'0 0.0
2017-Dec-09 14:30N 48°23' W 004°28'0 0.0
2017-Dec-09 14:00N 48°23' W 004°28'  

Dump ship's entire track history